Time;durP1;ratioP1;P1;durP2;ratioP2;P2;SDS_P1;SDS_P2;PMS_P1;PMS_P2;Temp;Humidity;BMP_temperature;BMP_pressure;BME280_temperature;BME280_humidity;BME280_pressure;Samples;Min_cycle;Max_cycle;Signal;HPM_P1;HPM_P2
2021/08/30 00:00:16;;;;;;;12.35;8.05;;;;;;;15.83;52.36;101970.88;5075038;28;20077;-69
2021/08/30 00:02:42;;;;;;;11.77;8.50;;;;;;;15.96;51.69;101969.41;5061660;28;20382;-68
2021/08/30 00:05:08;;;;;;;12.35;8.35;;;;;;;16.01;52.00;101970.09;5059846;28;20493;-68
2021/08/30 00:07:34;;;;;;;10.63;7.68;;;;;;;15.98;52.45;101975.47;5058979;28;20140;-68
2021/08/30 00:09:59;;;;;;;14.00;7.03;;;;;;;15.84;52.92;101972.59;5069447;28;20599;-68
2021/08/30 00:12:25;;;;;;;10.32;7.20;;;;;;;15.81;52.81;101976.22;5063055;28;20074;-69
2021/08/30 00:14:50;;;;;;;12.15;7.75;;;;;;;16.04;52.48;101971.72;5061974;28;20040;-69
2021/08/30 00:17:16;;;;;;;10.05;6.72;;;;;;;15.75;53.41;101976.50;5060014;28;20086;-69
2021/08/30 00:19:41;;;;;;;9.68;6.90;;;;;;;15.81;53.53;101976.22;5062447;28;20028;-68
2021/08/30 00:22:07;;;;;;;12.30;7.43;;;;;;;15.80;53.34;101975.38;5057296;28;20048;-68
2021/08/30 00:24:32;;;;;;;13.75;7.40;;;;;;;15.83;53.32;101979.66;5078168;28;20040;-69
2021/08/30 00:26:58;;;;;;;13.20;6.90;;;;;;;15.94;53.02;101972.09;5041466;28;20068;-68
2021/08/30 00:29:26;;;;;;;11.38;8.40;;;;;;;15.95;53.11;101975.59;5064414;28;20036;-68
2021/08/30 00:31:57;;;;;;;12.40;8.20;;;;;;;15.87;53.39;101975.94;5060270;28;20087;-68
2021/08/30 00:34:23;;;;;;;14.55;8.57;;;;;;;15.82;53.55;101962.13;5055704;28;21065;-68
2021/08/30 00:36:49;;;;;;;13.77;7.63;;;;;;;15.71;53.79;101967.88;5076348;28;20060;-68
2021/08/30 00:39:19;;;;;;;20.45;8.07;;;;;;;15.79;53.49;101967.53;5058076;28;20438;-69
2021/08/30 00:41:46;;;;;;;12.90;7.85;;;;;;;15.84;53.42;101975.22;5063825;28;20059;-69
2021/08/30 00:44:12;;;;;;;11.50;7.45;;;;;;;15.61;54.04;101973.63;5076387;28;20028;-68
2021/08/30 00:46:37;;;;;;;11.57;6.63;;;;;;;15.80;53.29;101972.72;5058231;28;20033;-68
2021/08/30 00:49:03;;;;;;;11.90;7.32;;;;;;;15.84;53.25;101975.22;5058701;28;20040;-68
2021/08/30 00:51:29;;;;;;;14.27;8.18;;;;;;;15.89;52.71;101968.84;5059628;28;20033;-68
2021/08/30 00:53:58;;;;;;;12.35;7.45;;;;;;;15.69;53.63;101955.69;5064884;28;20036;-68
2021/08/30 00:56:24;;;;;;;12.68;7.45;;;;;;;15.80;53.08;101970.09;5068944;28;20036;-69
2021/08/30 00:58:49;;;;;;;8.15;6.93;;;;;;;15.80;53.10;101964.84;5062195;28;20105;-68
2021/08/30 01:01:15;;;;;;;12.23;7.75;;;;;;;15.68;53.67;101969.78;5058273;28;20805;-66
2021/08/30 01:03:41;;;;;;;12.25;7.68;;;;;;;15.91;52.84;101977.53;5061181;28;20047;-68
2021/08/30 01:06:16;;;;;;;14.25;7.85;;;;;;;15.76;53.45;101978.22;5060796;28;20033;-67
2021/08/30 01:08:50;;;;;;;10.45;7.13;;;;;;;15.68;54.04;101980.31;5075732;28;20413;-68
2021/08/30 01:11:21;;;;;;;12.20;7.13;;;;;;;15.64;54.04;101974.34;5074740;28;20044;-68
2021/08/30 01:13:50;;;;;;;16.15;8.63;;;;;;;15.85;53.50;101971.69;5073892;28;20122;-68
2021/08/30 01:16:19;;;;;;;14.75;7.35;;;;;;;15.81;53.83;101978.84;5072074;28;20044;-69
2021/08/30 01:18:49;;;;;;;10.43;7.95;;;;;;;16.07;52.88;101977.72;5060180;28;20065;-68
2021/08/30 01:21:22;;;;;;;13.32;8.65;;;;;;;15.84;53.47;101989.28;5062899;28;20134;-68
2021/08/30 01:24:11;;;;;;;15.65;7.90;;;;;;;15.88;53.25;101982.91;5059745;28;20038;-67
2021/08/30 01:26:42;;;;;;;11.32;7.00;;;;;;;15.87;53.45;101985.66;5080424;28;20123;-68
2021/08/30 01:29:17;;;;;;;13.00;7.68;;;;;;;15.89;53.47;101989.94;5060283;28;20082;-68
2021/08/30 01:31:55;;;;;;;11.15;7.80;;;;;;;16.14;52.57;101994.13;5060001;28;20126;-68
2021/08/30 01:34:23;;;;;;;15.13;7.78;;;;;;;16.00;52.79;101992.13;5058796;28;20119;-68
2021/08/30 01:36:50;;;;;;;11.32;6.88;;;;;;;16.04;52.61;101990.19;5080010;28;20056;-68
2021/08/30 01:39:17;;;;;;;12.27;8.30;;;;;;;15.98;52.78;101986.88;5056896;28;20556;-67
2021/08/30 01:41:45;;;;;;;14.05;7.45;;;;;;;16.16;52.22;101987.00;5057693;28;20037;-68
2021/08/30 01:44:12;;;;;;;14.25;7.97;;;;;;;15.73;53.29;101989.75;5057363;28;20059;-67
2021/08/30 01:46:39;;;;;;;14.88;8.38;;;;;;;15.87;52.99;101975.94;5058592;28;20021;-68
2021/08/30 01:49:07;;;;;;;10.45;7.63;;;;;;;15.83;53.07;101974.38;5058758;28;20024;-69
2021/08/30 01:51:33;;;;;;;11.00;7.15;;;;;;;15.80;53.03;101979.78;5059576;28;20128;-68
2021/08/30 01:53:59;;;;;;;10.10;6.88;;;;;;;15.39;54.22;101974.53;5059220;28;20097;-68
2021/08/30 01:56:28;;;;;;;14.73;7.38;;;;;;;15.71;53.17;101978.44;5062640;28;20032;-68
2021/08/30 02:01:39;;;;;;;14.23;8.20;;;;;;;15.39;54.42;101979.81;5058697;28;20020;-67
2021/08/30 02:04:04;;;;;;;10.85;7.93;;;;;;;15.55;53.65;101978.25;5056901;28;20037;-68
2021/08/30 02:06:34;;;;;;;12.38;7.85;;;;;;;15.35;54.28;101979.09;5055083;28;20029;-68
2021/08/30 02:09:00;;;;;;;12.70;6.90;;;;;;;15.27;54.65;101980.34;5060740;28;20036;-68
2021/08/30 02:11:34;;;;;;;13.98;7.68;;;;;;;15.34;54.15;101979.16;5061000;28;20043;-68
2021/08/30 02:14:02;;;;;;;15.25;7.75;;;;;;;15.11;54.91;101975.69;5072714;28;20100;-68
2021/08/30 02:16:28;;;;;;;17.88;7.20;;;;;;;15.16;54.99;101973.72;5055648;28;20048;-68
2021/08/30 02:19:39;;;;;;;15.32;7.25;;;;;;;15.16;54.83;101973.72;5053093;28;20082;-68
2021/08/30 02:22:14;;;;;;;11.20;6.78;;;;;;;15.01;55.27;101970.88;5055462;28;20377;-68
2021/08/30 02:24:45;;;;;;;16.02;7.30;;;;;;;15.20;54.64;101973.59;5077376;28;20041;-67
2021/08/30 02:27:17;;;;;;;11.73;7.33;;;;;;;15.07;55.18;101973.25;5059452;28;20578;-67
2021/08/30 02:29:50;;;;;;;12.07;7.82;;;;;;;15.02;55.57;101967.31;5058130;28;20381;-69
2021/08/30 02:32:17;;;;;;;9.57;7.00;;;;;;;15.06;55.44;101969.78;5060138;28;20084;-69
2021/08/30 02:34:46;;;;;;;10.63;7.15;;;;;;;15.13;55.39;101975.63;5055510;28;20474;-69
2021/08/30 02:37:14;;;;;;;14.98;7.22;;;;;;;15.17;55.24;101970.19;5078777;28;20086;-69
2021/08/30 02:39:41;;;;;;;14.98;9.10;;;;;;;15.13;55.53;101970.38;5065442;28;20020;-67
2021/08/30 02:42:19;;;;;;;12.25;7.22;;;;;;;15.12;56.00;101961.59;5061996;28;20039;-68
2021/08/30 02:44:46;;;;;;;18.13;8.80;;;;;;;15.26;55.65;101962.81;5075892;28;20089;-69
2021/08/30 02:47:13;;;;;;;12.90;7.57;;;;;;;15.04;56.37;101963.72;5069863;28;20060;-68
2021/08/30 02:49:41;;;;;;;13.00;7.78;;;;;;;15.37;55.40;101965.84;5060917;28;20036;-69
2021/08/30 02:52:09;;;;;;;13.63;7.72;;;;;;;15.26;55.95;101976.88;5044997;28;20108;-69
2021/08/30 02:54:36;;;;;;;14.07;8.32;;;;;;;15.41;55.44;101959.53;5061041;28;20040;-69
2021/08/30 02:57:03;;;;;;;18.38;8.38;;;;;;;15.42;55.46;101963.88;5057836;28;20043;-69
2021/08/30 02:59:29;;;;;;;20.13;9.30;;;;;;;15.23;56.38;101968.22;5062976;28;20445;-69
2021/08/30 03:01:56;;;;;;;10.23;6.55;;;;;;;15.33;55.80;101966.94;5063727;28;20115;-69
2021/08/30 03:04:22;;;;;;;17.30;8.68;;;;;;;15.54;55.27;101960.72;5060445;28;20075;-69
2021/08/30 03:06:49;;;;;;;15.10;7.63;;;;;;;15.01;56.66;101963.81;5042406;28;20056;-67
2021/08/30 03:09:15;;;;;;;15.75;7.93;;;;;;;15.41;55.66;101967.44;5061799;28;20067;-68
2021/08/30 03:11:43;;;;;;;14.85;8.18;;;;;;;15.40;55.31;101963.09;5075955;28;20127;-68
2021/08/30 03:14:09;;;;;;;13.40;7.53;;;;;;;15.67;54.75;101962.81;5058932;28;20040;-68
2021/08/30 03:16:36;;;;;;;13.52;8.35;;;;;;;15.42;55.70;101971.78;5063476;28;20032;-68
2021/08/30 03:19:03;;;;;;;12.52;7.82;;;;;;;15.48;55.39;101970.66;5043105;28;20698;-68
2021/08/30 03:21:30;;;;;;;15.02;8.10;;;;;;;15.81;54.37;101970.94;5060750;28;20043;-68
2021/08/30 03:23:59;;;;;;;15.98;8.40;;;;;;;15.82;54.32;101975.31;5061498;28;20048;-68
2021/08/30 03:26:26;;;;;;;18.48;7.47;;;;;;;15.82;54.36;101970.03;5063186;28;20083;-68
2021/08/30 03:28:52;;;;;;;12.82;6.63;;;;;;;15.83;54.32;101968.25;5061403;28;20357;-68
2021/08/30 03:31:19;;;;;;;13.35;7.22;;;;;;;15.78;54.56;101971.09;5044603;28;20375;-68
2021/08/30 03:33:46;;;;;;;15.10;7.72;;;;;;;15.78;54.43;101971.94;5046204;28;20020;-68
2021/08/30 03:36:12;;;;;;;11.20;6.88;;;;;;;15.25;56.04;101972.50;5062392;28;20450;-68
2021/08/30 03:38:39;;;;;;;13.68;6.57;;;;;;;15.55;55.17;101962.44;5058174;28;20119;-68
2021/08/30 03:41:05;;;;;;;14.43;7.40;;;;;;;15.42;55.67;101963.88;5077002;28;20346;-68
2021/08/30 03:43:32;;;;;;;12.07;7.32;;;;;;;15.66;55.05;101971.63;5060252;28;20097;-69
2021/08/30 03:45:58;;;;;;;9.38;6.60;;;;;;;15.41;55.77;101966.59;5066471;28;20040;-68
2021/08/30 03:48:24;;;;;;;12.38;7.88;;;;;;;15.75;54.77;101976.50;5059231;28;20029;-68
2021/08/30 03:50:53;;;;;;;18.90;7.10;;;;;;;15.77;54.83;101966.72;5053624;28;20033;-68
2021/08/30 03:53:21;;;;;;;14.20;7.85;;;;;;;15.56;55.42;101974.66;5060582;28;20032;-69
2021/08/30 03:55:47;;;;;;;15.60;7.18;;;;;;;15.52;55.71;101969.59;5061490;28;20024;-68
2021/08/30 03:58:16;;;;;;;20.73;8.20;;;;;;;15.62;55.05;101970.94;5061129;28;20174;-68
2021/08/30 04:00:42;;;;;;;13.95;7.18;;;;;;;15.62;55.15;101970.94;5061890;28;20077;-68
2021/08/30 04:03:11;;;;;;;10.93;7.07;;;;;;;15.39;55.72;101971.91;5057787;28;20099;-68
2021/08/30 04:05:39;;;;;;;8.48;6.00;;;;;;;15.76;54.81;101973.78;5058055;28;20084;-68
2021/08/30 04:08:08;;;;;;;19.67;7.70;;;;;;;15.70;54.63;101975.84;5064614;28;20173;-68
2021/08/30 04:10:34;;;;;;;13.45;8.43;;;;;;;15.68;54.89;101973.28;5041278;28;20389;-68
2021/08/30 04:13:01;;;;;;;12.00;7.65;;;;;;;15.79;54.55;101972.78;5075083;28;20037;-68
2021/08/30 04:15:28;;;;;;;12.57;7.38;;;;;;;15.69;54.83;101977.63;5060287;28;20386;-68
2021/08/30 04:17:54;;;;;;;15.18;7.00;;;;;;;15.71;54.67;101980.22;5057799;28;20444;-68
2021/08/30 04:20:19;;;;;;;11.85;6.82;;;;;;;15.73;54.73;101976.56;5057402;28;20033;-68
2021/08/30 04:22:45;;;;;;;12.98;7.45;;;;;;;15.85;54.39;101976.94;5042385;28;20029;-68
2021/08/30 04:25:11;;;;;;;10.20;6.57;;;;;;;15.82;54.50;101980.59;5080043;28;20254;-68
2021/08/30 04:27:36;;;;;;;16.15;7.55;;;;;;;15.83;54.36;101979.66;5077023;28;20036;-69
2021/08/30 04:30:03;;;;;;;11.07;7.78;;;;;;;15.68;55.11;101981.16;5058198;28;20421;-68
2021/08/30 04:32:33;;;;;;;15.07;7.00;;;;;;;15.68;54.71;101983.81;5055719;28;20029;-68
2021/08/30 04:34:59;;;;;;;18.30;7.65;;;;;;;15.80;54.22;101990.34;5061489;28;20432;-68
2021/08/30 04:37:25;;;;;;;10.93;6.72;;;;;;;15.70;54.67;101983.75;5065992;28;20774;-68
2021/08/30 04:39:50;;;;;;;18.58;6.93;;;;;;;15.74;54.59;101986.19;5060319;28;20070;-68
2021/08/30 04:42:16;;;;;;;13.98;7.85;;;;;;;15.85;54.25;101987.50;5057916;28;20047;-68
2021/08/30 04:44:41;;;;;;;13.60;6.60;;;;;;;15.77;54.14;101986.06;5059777;28;20090;-68
2021/08/30 04:47:08;;;;;;;10.95;6.38;;;;;;;15.53;55.16;101992.41;5055235;28;20130;-68
2021/08/30 04:49:34;;;;;;;15.43;6.18;;;;;;;15.84;54.17;101986.66;5058465;28;20082;-68
2021/08/30 04:51:59;;;;;;;12.75;6.03;;;;;;;15.94;53.99;101985.28;5056580;28;20032;-68
2021/08/30 04:54:25;;;;;;;12.13;5.82;;;;;;;15.83;54.31;101990.19;5059778;28;20571;-68
2021/08/30 04:56:51;;;;;;;11.73;6.38;;;;;;;15.59;55.02;101997.38;5058316;28;20174;-68
2021/08/30 04:59:16;;;;;;;15.60;6.28;;;;;;;15.84;54.38;101997.19;5062486;28;20074;-68
2021/08/30 05:01:42;;;;;;;13.25;7.30;;;;;;;15.92;54.04;101996.84;5063407;28;20016;-68
2021/08/30 05:04:07;;;;;;;10.25;5.85;;;;;;;15.69;55.28;101995.22;5057656;28;20427;-68
2021/08/30 05:06:32;;;;;;;13.68;7.65;;;;;;;16.00;53.81;101997.38;5057401;28;20024;-68
2021/08/30 05:08:58;;;;;;;11.82;6.13;;;;;;;15.90;54.46;102002.16;5059473;28;20040;-67
2021/08/30 05:11:23;;;;;;;10.27;6.70;;;;;;;16.09;53.79;102004.03;5067666;28;20116;-67
2021/08/30 05:13:49;;;;;;;8.98;6.35;;;;;;;16.15;53.77;102001.09;5059667;28;20060;-68
2021/08/30 05:16:14;;;;;;;12.65;6.80;;;;;;;16.17;53.75;101999.25;5075499;28;20040;-68
2021/08/30 05:18:40;;;;;;;11.93;5.53;;;;;;;16.13;53.84;102005.56;5073490;28;20029;-68
2021/08/30 05:21:09;;;;;;;10.05;6.45;;;;;;;16.25;53.35;102006.81;5054349;28;20107;-68
2021/08/30 05:23:35;;;;;;;10.32;6.30;;;;;;;16.13;53.86;102008.22;5063088;28;20119;-68
2021/08/30 05:26:00;;;;;;;14.45;6.35;;;;;;;16.29;53.10;102016.31;5039164;28;20223;-68
2021/08/30 05:28:26;;;;;;;13.88;6.43;;;;;;;16.24;53.51;102018.28;5057514;28;20413;-68
2021/08/30 05:30:52;;;;;;;15.88;6.18;;;;;;;16.62;52.26;102019.13;5062001;28;20590;-67
2021/08/30 05:33:18;;;;;;;10.32;5.90;;;;;;;16.21;53.36;102014.84;5054838;28;20090;-69
2021/08/30 05:35:44;;;;;;;9.63;5.65;;;;;;;16.21;53.33;102016.63;5058815;28;20482;-68
2021/08/30 05:38:10;;;;;;;10.43;5.45;;;;;;;16.33;53.16;102026.66;5054913;28;20110;-67
2021/08/30 05:40:35;;;;;;;16.10;5.72;;;;;;;16.33;53.08;102025.75;5056414;28;20024;-68
2021/08/30 05:43:01;;;;;;;11.95;5.53;;;;;;;16.38;53.03;102022.00;5059410;28;20060;-67
2021/08/30 05:45:27;;;;;;;10.63;5.43;;;;;;;16.65;52.08;102026.91;5060310;28;20033;-68
2021/08/30 05:47:52;;;;;;;11.48;4.93;;;;;;;16.51;52.54;102029.31;5062993;28;20037;-68
2021/08/30 05:50:18;;;;;;;9.30;5.55;;;;;;;16.18;53.52;102022.91;5056926;28;20436;-68
2021/08/30 05:52:43;;;;;;;8.73;5.22;;;;;;;16.51;52.54;102024.03;5057475;28;20037;-68
2021/08/30 05:55:09;;;;;;;8.75;5.18;;;;;;;16.78;51.79;102030.72;5056521;28;20043;-68
2021/08/30 05:57:35;;;;;;;6.60;4.30;;;;;;;16.90;51.44;102025.75;5060854;28;20123;-68
2021/08/30 06:00:00;;;;;;;8.48;5.38;;;;;;;16.80;51.55;102026.22;5059415;28;20211;-68
2021/08/30 06:02:26;;;;;;;8.02;4.75;;;;;;;16.94;51.64;102030.81;5043853;28;20570;-68
2021/08/30 06:04:52;;;;;;;10.02;5.50;;;;;;;17.01;51.29;102023.44;5064193;28;20456;-69
2021/08/30 06:07:17;;;;;;;8.77;4.75;;;;;;;17.29;50.61;102014.13;5062744;28;20037;-68
2021/08/30 06:09:43;;;;;;;11.13;5.43;;;;;;;17.32;50.79;102024.56;5044687;28;20036;-68
2021/08/30 06:12:08;;;;;;;8.60;4.78;;;;;;;17.09;51.04;102021.28;5058558;28;20033;-68
2021/08/30 06:14:34;;;;;;;8.80;5.28;;;;;;;17.58;49.83;102018.84;5065203;28;20140;-68
2021/08/30 06:16:59;;;;;;;9.40;5.20;;;;;;;17.54;50.36;102022.56;5076142;28;20028;-68
2021/08/30 06:19:25;;;;;;;8.23;5.00;;;;;;;18.03;49.09;102017.34;5066370;28;20075;-68
2021/08/30 06:21:51;;;;;;;9.20;4.50;;;;;;;18.15;49.02;102022.91;5065114;28;20043;-68
2021/08/30 06:24:16;;;;;;;9.02;5.00;;;;;;;18.14;48.31;102018.53;5061344;28;20036;-68
2021/08/30 06:26:48;;;;;;;9.82;5.75;;;;;;;18.27;48.20;102023.13;5078906;28;20082;-69
2021/08/30 06:29:13;;;;;;;9.00;3.80;;;;;;;18.20;48.65;102021.75;5059880;28;20021;-69
2021/08/30 06:31:39;;;;;;;9.75;4.70;;;;;;;18.51;47.70;102019.22;5058129;28;20056;-67
2021/08/30 06:34:04;;;;;;;7.18;4.28;;;;;;;18.65;47.66;102016.63;5061460;28;20043;-67
2021/08/30 06:36:30;;;;;;;9.20;4.47;;;;;;;18.72;46.69;102020.66;5062348;28;20840;-67
2021/08/30 06:38:55;;;;;;;9.80;4.97;;;;;;;18.35;47.88;102013.91;5057795;28;20028;-67
2021/08/30 06:41:23;;;;;;;11.70;5.07;;;;;;;18.02;48.35;102020.91;5061800;28;20104;-67
2021/08/30 06:43:48;;;;;;;11.15;4.85;;;;;;;17.85;48.89;102028.91;5080763;28;20041;-68
2021/08/30 06:46:14;;;;;;;8.63;4.28;;;;;;;17.59;49.61;102025.81;5060880;28;20606;-68
2021/08/30 06:48:39;;;;;;;11.95;4.78;;;;;;;17.64;49.96;102031.72;5063087;28;20762;-68
2021/08/30 06:51:05;;;;;;;8.05;4.75;;;;;;;17.56;50.00;102030.41;5075364;28;20632;-69
2021/08/30 06:53:30;;;;;;;15.50;5.50;;;;;;;17.79;49.68;102034.50;5057678;28;20036;-68
2021/08/30 06:55:56;;;;;;;11.43;5.28;;;;;;;17.65;49.73;102036.09;5059619;28;20028;-67
2021/08/30 06:58:21;;;;;;;6.32;5.13;;;;;;;16.86;52.13;102042.69;5059363;28;20508;-68
2021/08/30 07:00:48;;;;;;;6.45;4.72;;;;;;;17.18;51.30;102041.97;5058866;28;20156;-69
2021/08/30 07:03:14;;;;;;;7.50;4.88;;;;;;;17.28;51.05;102039.72;5067402;28;20024;-68
2021/08/30 07:05:39;;;;;;;7.60;5.05;;;;;;;17.24;51.25;102033.72;5063022;28;20119;-69
2021/08/30 07:08:05;;;;;;;9.80;5.05;;;;;;;18.07;49.10;102025.94;5043985;28;20112;-68
2021/08/30 07:10:31;;;;;;;16.67;6.15;;;;;;;17.84;49.19;102037.75;5058759;28;20066;-69
2021/08/30 07:12:57;;;;;;;12.75;5.15;;;;;;;17.51;50.03;102041.22;5061347;28;20024;-69
2021/08/30 07:15:23;;;;;;;8.40;5.15;;;;;;;17.53;50.16;102034.06;5062943;28;20555;-68
2021/08/30 07:17:48;;;;;;;7.95;4.50;;;;;;;18.02;48.75;102031.50;5049716;28;20024;-67
2021/08/30 07:20:14;;;;;;;8.40;4.40;;;;;;;18.09;49.11;102033.81;5074374;28;20092;-67
2021/08/30 07:22:40;;;;;;;8.85;5.07;;;;;;;17.94;49.18;102030.19;5057821;28;20040;-67
2021/08/30 07:25:05;;;;;;;9.70;5.20;;;;;;;17.67;49.75;102033.38;5064162;28;20089;-68
2021/08/30 07:27:31;;;;;;;10.68;5.35;;;;;;;18.29;48.70;102036.25;5059899;28;20032;-67
2021/08/30 07:29:57;;;;;;;7.93;5.00;;;;;;;18.44;47.57;102034.56;5082580;28;20033;-68
2021/08/30 07:32:22;;;;;;;7.32;4.65;;;;;;;18.29;47.60;102038.06;5061159;28;20123;-68
2021/08/30 07:34:48;;;;;;;7.63;4.05;;;;;;;18.07;47.90;102033.88;5065672;28;20071;-69
2021/08/30 07:37:13;;;;;;;8.27;5.40;;;;;;;18.21;47.89;102038.50;5062326;28;20101;-69
2021/08/30 07:39:39;;;;;;;12.48;4.80;;;;;;;18.57;47.01;102035.59;5063060;28;20520;-68
2021/08/30 07:42:04;;;;;;;9.05;4.85;;;;;;;19.20;45.91;102036.50;5064876;28;20102;-68
2021/08/30 07:44:30;;;;;;;7.75;4.82;;;;;;;19.15;44.35;102036.75;5058467;28;20044;-69
2021/08/30 07:46:55;;;;;;;11.88;4.88;;;;;;;19.05;45.12;102040.88;5062002;28;20047;-67
2021/08/30 07:49:21;;;;;;;9.63;4.35;;;;;;;19.49;43.57;102045.38;5076631;28;20040;-68
2021/08/30 07:51:47;;;;;;;5.60;3.80;;;;;;;19.46;44.55;102050.88;5064359;28;20039;-68
2021/08/30 07:54:12;;;;;;;9.50;3.97;;;;;;;20.61;42.71;102048.25;5058646;28;20043;-68
2021/08/30 07:56:40;;;;;;;10.55;4.28;;;;;;;20.59;42.34;102052.81;5059561;28;20126;-68
2021/08/30 07:59:06;;;;;;;10.68;4.88;;;;;;;22.85;37.34;102051.50;5060048;28;20028;-68
2021/08/30 08:01:32;;;;;;;6.68;4.00;;;;;;;24.23;34.25;102046.22;5066809;28;20038;-68
2021/08/30 08:03:57;;;;;;;11.27;4.90;;;;;;;23.41;35.74;102049.06;5045917;28;20063;-68
2021/08/30 08:06:23;;;;;;;13.50;4.68;;;;;;;21.80;38.31;102054.56;5066733;28;20090;-68
2021/08/30 08:08:49;;;;;;;11.23;4.18;;;;;;;20.63;40.41;102046.34;5063884;28;20062;-68
2021/08/30 08:11:14;;;;;;;7.25;4.47;;;;;;;20.22;42.10;102056.00;5058722;28;20607;-67
2021/08/30 08:13:40;;;;;;;9.00;4.43;;;;;;;22.27;38.58;102061.03;5044979;28;20056;-68
2021/08/30 08:16:06;;;;;;;8.30;3.50;;;;;;;23.26;35.73;102054.69;5062130;28;20043;-68
2021/08/30 08:18:32;;;;;;;5.07;3.80;;;;;;;24.83;33.00;102060.09;5058958;28;20036;-68
2021/08/30 08:21:01;;;;;;;8.32;3.78;;;;;;;25.57;31.60;102058.44;5058990;28;20117;-68
2021/08/30 08:23:26;;;;;;;8.77;3.53;;;;;;;25.29;32.76;102071.47;5058407;28;20040;-68
2021/08/30 08:25:52;;;;;;;5.70;3.30;;;;;;;23.79;34.85;102058.59;5046836;28;20043;-68
2021/08/30 08:28:18;;;;;;;9.73;4.50;;;;;;;21.71;38.63;102066.69;5055012;28;20044;-68
2021/08/30 08:30:43;;;;;;;5.15;3.55;;;;;;;21.25;39.98;102062.66;5058226;28;20028;-68
2021/08/30 08:33:12;;;;;;;7.13;5.30;;;;;;;20.28;41.83;102070.69;5058216;28;20033;-68
2021/08/30 08:35:40;;;;;;;9.50;4.35;;;;;;;20.10;42.53;102072.66;5078328;28;20478;-68
2021/08/30 08:38:09;;;;;;;7.60;4.00;;;;;;;20.20;42.09;102078.25;5058562;28;20110;-68
2021/08/30 08:40:35;;;;;;;9.23;4.30;;;;;;;19.80;43.35;102075.41;5060099;28;20141;-68
2021/08/30 08:43:01;;;;;;;7.90;3.75;;;;;;;19.23;44.44;102068.97;5042918;28;20115;-68
2021/08/30 08:45:27;;;;;;;6.07;3.90;;;;;;;19.52;44.22;102077.00;5058200;28;20076;-69
2021/08/30 08:47:53;;;;;;;7.32;4.45;;;;;;;19.11;45.05;102080.28;5057612;28;20158;-67
2021/08/30 08:50:21;;;;;;;7.05;4.30;;;;;;;19.02;45.26;102078.16;5059967;28;20125;-67
2021/08/30 08:52:46;;;;;;;10.00;4.38;;;;;;;18.99;45.09;102083.59;5057362;28;20403;-68
2021/08/30 08:55:15;;;;;;;6.70;4.22;;;;;;;19.00;45.93;102074.75;5059062;28;20052;-68
2021/08/30 08:57:41;;;;;;;9.32;4.72;;;;;;;19.52;44.21;102082.31;5064884;28;20289;-68
2021/08/30 09:00:09;;;;;;;13.50;5.13;;;;;;;19.60;43.62;102080.09;5062318;28;20486;-69
2021/08/30 09:02:35;;;;;;;13.00;5.50;;;;;;;20.00;43.46;102072.38;5072309;28;20469;-68
2021/08/30 09:05:03;;;;;;;11.63;5.20;;;;;;;19.55;44.50;102068.91;5075535;28;20024;-68
2021/08/30 09:07:35;;;;;;;8.88;4.95;;;;;;;19.03;46.00;102079.84;5062290;28;20050;-68
2021/08/30 09:10:01;;;;;;;6.32;4.05;;;;;;;18.87;45.40;102078.06;5057600;28;20043;-69
2021/08/30 09:12:27;;;;;;;7.55;4.25;;;;;;;18.80;45.77;102076.69;5060649;28;20047;-68
2021/08/30 09:14:53;;;;;;;9.48;4.53;;;;;;;18.73;45.70;102072.66;5057933;28;20039;-68
2021/08/30 09:17:19;;;;;;;6.72;4.68;;;;;;;18.97;45.81;102078.41;5060153;28;20047;-69
2021/08/30 09:19:45;;;;;;;10.27;4.82;;;;;;;19.11;44.93;102088.22;5058407;28;20409;-68
2021/08/30 09:22:11;;;;;;;9.77;5.07;;;;;;;19.30;44.41;102078.28;5059751;28;20036;-68
2021/08/30 09:24:38;;;;;;;6.45;4.57;;;;;;;19.22;44.75;102080.50;5075458;28;20032;-69
2021/08/30 09:27:07;;;;;;;7.43;4.65;;;;;;;19.69;43.56;102079.53;5058629;28;20388;-68
2021/08/30 09:29:35;;;;;;;8.23;4.32;;;;;;;19.84;42.54;102080.41;5045605;28;20101;-68
2021/08/30 09:32:04;;;;;;;8.77;3.83;;;;;;;19.94;42.13;102078.06;5061446;28;20386;-68
2021/08/30 09:34:43;;;;;;;6.53;3.72;;;;;;;20.54;41.50;102080.50;5060485;28;20044;-68
2021/08/30 09:37:16;;;;;;;8.88;3.63;;;;;;;20.54;41.46;102077.84;5058497;28;20162;-67
2021/08/30 09:39:49;;;;;;;8.32;4.63;;;;;;;20.65;41.19;102082.50;5050803;28;20064;-68
2021/08/30 09:42:15;;;;;;;6.70;4.00;;;;;;;21.13;40.47;102077.63;5069150;28;20469;-68
2021/08/30 09:44:41;;;;;;;9.48;3.75;;;;;;;21.11;39.59;102076.00;5065871;28;20033;-68
2021/08/30 09:47:12;;;;;;;5.60;3.90;;;;;;;21.82;39.36;102060.63;5063129;28;20078;-68
2021/08/30 09:49:39;;;;;;;7.75;4.05;;;;;;;22.54;37.41;102064.38;5061659;28;20024;-68
2021/08/30 09:52:05;;;;;;;5.20;3.63;;;;;;;23.42;35.90;102055.25;5079017;28;20052;-68
2021/08/30 09:54:31;;;;;;;8.10;3.42;;;;;;;23.30;35.75;102057.06;5061514;28;20017;-69
2021/08/30 09:56:57;;;;;;;5.00;3.38;;;;;;;22.78;36.48;102064.44;5064790;28;20569;-67
2021/08/30 09:59:25;;;;;;;8.82;4.20;;;;;;;23.03;35.72;102059.97;5059352;28;20063;-68
2021/08/30 10:01:52;;;;;;;7.10;3.53;;;;;;;22.92;35.47;102057.25;5066944;28;20036;-68
2021/08/30 10:04:21;;;;;;;4.22;3.83;;;;;;;22.75;35.68;102055.81;5063056;28;20048;-68
2021/08/30 10:06:49;;;;;;;8.02;4.03;;;;;;;21.35;38.07;102060.22;5060876;28;20036;-68
2021/08/30 10:09:16;;;;;;;5.60;3.92;;;;;;;21.71;37.92;102062.25;5048751;28;20036;-68
2021/08/30 10:11:43;;;;;;;4.82;2.75;;;;;;;21.65;38.39;102056.50;5064316;28;20045;-68
2021/08/30 10:14:11;;;;;;;7.72;3.35;;;;;;;22.10;37.61;102062.25;5059932;28;20542;-68
2021/08/30 10:16:39;;;;;;;4.70;3.50;;;;;;;22.72;36.07;102045.38;5063715;28;20068;-68
2021/08/30 10:19:05;;;;;;;6.93;3.67;;;;;;;22.45;37.27;102049.06;5060463;28;20037;-68
2021/08/30 10:21:31;;;;;;;7.38;4.20;;;;;;;22.47;36.60;102047.16;5068682;28;20440;-68
2021/08/30 10:23:57;;;;;;;9.45;3.92;;;;;;;23.00;36.06;102045.00;5062675;28;20036;-68
2021/08/30 10:26:36;;;;;;;6.70;3.33;;;;;;;23.44;34.73;102052.47;5063187;28;20111;-68
2021/08/30 10:29:02;;;;;;;4.85;3.42;;;;;;;22.11;37.31;102048.81;5083046;28;20036;-68
2021/08/30 10:31:27;;;;;;;5.88;3.60;;;;;;;21.66;37.38;102045.72;5048941;28;20115;-68
2021/08/30 10:33:56;;;;;;;6.50;3.60;;;;;;;22.37;36.82;102046.94;5061848;28;20101;-68
2021/08/30 10:36:24;;;;;;;5.68;4.45;;;;;;;22.33;36.89;102045.47;5061684;28;20045;-67
2021/08/30 10:39:15;;;;;;;4.85;3.40;;;;;;;23.35;36.51;102044.19;5077257;28;20028;-67
2021/08/30 10:41:43;;;;;;;;;;;;;;;22.88;36.53;102045.09;5042902;28;20071;-68
2021/08/30 10:44:16;;;;;;;5.68;3.95;;;;;;;22.00;37.29;102059.31;5057511;28;19974;-67
2021/08/30 10:46:56;;;;;;;7.90;3.65;;;;;;;21.24;38.72;102060.09;5061863;28;20119;-69
2021/08/30 10:49:31;;;;;;;8.50;4.50;;;;;;;20.95;39.95;102062.88;5067386;28;20064;-68
2021/08/30 10:52:11;;;;;;;6.93;3.92;;;;;;;20.66;39.72;102070.06;5065270;28;20112;-68
2021/08/30 10:54:58;;;;;;;6.72;3.95;;;;;;;20.90;39.79;102067.66;5058399;28;20123;-68
2021/08/30 10:57:40;;;;;;;7.28;3.70;;;;;;;20.85;39.61;102061.78;5058326;28;20040;-67
2021/08/30 11:00:08;;;;;;;8.57;4.22;;;;;;;20.90;39.68;102067.66;5060952;28;20074;-68
2021/08/30 11:02:38;;;;;;;5.93;3.75;;;;;;;21.73;38.21;102060.28;5058975;28;20089;-68
2021/08/30 11:05:08;;;;;;;8.65;3.03;;;;;;;21.59;38.60;102060.41;5062887;28;20653;-68
2021/08/30 11:07:35;;;;;;;6.82;4.40;;;;;;;21.84;36.93;102058.72;5060186;28;20056;-68
2021/08/30 11:10:02;;;;;;;5.18;4.00;;;;;;;22.07;37.57;102060.63;5060848;28;20064;-68
2021/08/30 11:12:27;;;;;;;5.43;4.13;;;;;;;21.70;38.13;102057.00;5076970;28;20511;-68
2021/08/30 11:14:55;;;;;;;8.30;4.18;;;;;;;22.26;37.26;102049.53;5060591;28;20033;-69
2021/08/30 11:17:29;;;;;;;4.97;3.72;;;;;;;21.64;37.92;102047.63;5059658;28;20029;-68
2021/08/30 11:19:56;;;;;;;5.22;3.20;;;;;;;22.15;37.41;102058.28;5043197;28;20036;-68
2021/08/30 11:22:22;;;;;;;8.13;3.90;;;;;;;21.43;38.30;102059.72;5063995;28;20560;-68
2021/08/30 11:24:47;;;;;;;10.32;4.15;;;;;;;21.06;38.82;102063.03;5076014;28;20032;-68